sensor_id;sensor_type;location;lat;lon;timestamp;pressure;altitude;pressure_sealevel;temperature;humidity
59487;BME280;45298;54.918;73.504;2023-02-11T00:02:02;101545.25;;;-24.88;73.42
59487;BME280;45298;54.918;73.504;2023-02-11T00:04:32;101511.38;;;-25.09;72.77
59487;BME280;45298;54.918;73.504;2023-02-11T00:07:01;101501.03;;;-25.12;73.03
59487;BME280;45298;54.918;73.504;2023-02-11T00:09:30;101549.97;;;-24.91;73.22
59487;BME280;45298;54.918;73.504;2023-02-11T00:11:59;101511.13;;;-25.19;73.08
59487;BME280;45298;54.918;73.504;2023-02-11T00:14:27;101545.06;;;-25.14;72.63
59487;BME280;45298;54.918;73.504;2023-02-11T00:16:56;101503.91;;;-25.41;72.75
59487;BME280;45298;54.918;73.504;2023-02-11T00:19:25;101570.41;;;-25.11;72.88
59487;BME280;45298;54.918;73.504;2023-02-11T00:21:53;101543.59;;;-25.28;72.83
59487;BME280;45298;54.918;73.504;2023-02-11T00:24:22;101526.44;;;-25.41;72.70
59487;BME280;45298;54.918;73.504;2023-02-11T00:26:53;101517.66;;;-25.53;72.61
59487;BME280;45298;54.918;73.504;2023-02-11T00:29:23;101588.00;;;-25.18;72.92
59487;BME280;45298;54.918;73.504;2023-02-11T00:31:52;101537.28;;;-25.49;72.79
59487;BME280;45298;54.918;73.504;2023-02-11T00:34:23;101577.25;;;-25.42;72.49
59487;BME280;45298;54.918;73.504;2023-02-11T00:36:52;101547.34;;;-25.57;72.24
59487;BME280;45298;54.918;73.504;2023-02-11T00:39:23;101588.72;;;-25.44;72.65
59487;BME280;45298;54.918;73.504;2023-02-11T00:41:55;101449.59;;;-26.22;71.94
59487;BME280;45298;54.918;73.504;2023-02-11T00:44:26;101589.09;;;-25.48;72.05
59487;BME280;45298;54.918;73.504;2023-02-11T00:46:55;101589.09;;;-25.48;72.61
59487;BME280;45298;54.918;73.504;2023-02-11T00:49:23;101593.00;;;-25.43;72.65
59487;BME280;45298;54.918;73.504;2023-02-11T00:51:52;101596.81;;;-25.38;72.42
59487;BME280;45298;54.918;73.504;2023-02-11T00:54:21;101594.25;;;-25.31;72.28
59487;BME280;45298;54.918;73.504;2023-02-11T00:56:49;101612.09;;;-25.28;72.17
59487;BME280;45298;54.918;73.504;2023-02-11T00:59:18;101591.75;;;-25.31;72.69
59487;BME280;45298;54.918;73.504;2023-02-11T01:01:47;101590.69;;;-25.33;72.62
59487;BME280;45298;54.918;73.504;2023-02-11T01:04:16;101610.47;;;-25.11;72.39
59487;BME280;45298;54.918;73.504;2023-02-11T01:06:44;101612.59;;;-25.07;72.49
59487;BME280;45298;54.918;73.504;2023-02-11T01:09:13;101579.56;;;-25.28;72.48
59487;BME280;45298;54.918;73.504;2023-02-11T01:11:42;101583.34;;;-25.15;71.91
59487;BME280;45298;54.918;73.504;2023-02-11T01:14:11;101598.28;;;-25.08;72.76
59487;BME280;45298;54.918;73.504;2023-02-11T01:16:40;101605.28;;;-24.97;72.12
59487;BME280;45298;54.918;73.504;2023-02-11T01:19:09;101567.97;;;-25.18;72.09
59487;BME280;45298;54.918;73.504;2023-02-11T01:21:37;101606.09;;;-24.89;72.40
59487;BME280;45298;54.918;73.504;2023-02-11T01:24:06;101577.19;;;-25.10;72.51
59487;BME280;45298;54.918;73.504;2023-02-11T01:26:35;101597.78;;;-24.97;72.40
59487;BME280;45298;54.918;73.504;2023-02-11T01:29:04;101573.66;;;-25.12;71.97
59487;BME280;45298;54.918;73.504;2023-02-11T01:31:32;101623.25;;;-25.01;72.34
59487;BME280;45298;54.918;73.504;2023-02-11T01:34:01;101600.88;;;-25.31;71.66
59487;BME280;45298;54.918;73.504;2023-02-11T01:36:30;101639.06;;;-25.25;71.54
59487;BME280;45298;54.918;73.504;2023-02-11T01:38:59;101611.22;;;-25.44;72.10
59487;BME280;45298;54.918;73.504;2023-02-11T01:41:28;101636.81;;;-25.31;71.81
59487;BME280;45298;54.918;73.504;2023-02-11T01:43:57;101624.13;;;-25.32;72.33
59487;BME280;45298;54.918;73.504;2023-02-11T01:46:35;101640.03;;;-25.32;72.26
59487;BME280;45298;54.918;73.504;2023-02-11T01:49:17;101625.97;;;-25.38;72.44
59487;BME280;45298;54.918;73.504;2023-02-11T01:54:56;101632.31;;;-25.42;72.16
59487;BME280;45298;54.918;73.504;2023-02-11T01:57:50;101623.16;;;-25.42;72.30
59487;BME280;45298;54.918;73.504;2023-02-11T02:00:37;101634.16;;;-25.32;72.18
59487;BME280;45298;54.918;73.504;2023-02-11T02:03:17;101634.88;;;-25.33;72.18
59487;BME280;45298;54.918;73.504;2023-02-11T02:08:57;101636.16;;;-25.21;71.61
59487;BME280;45298;54.918;73.504;2023-02-11T02:11:24;101632.78;;;-25.21;71.63
59487;BME280;45298;54.918;73.504;2023-02-11T02:13:53;101614.66;;;-25.35;71.85
59487;BME280;45298;54.918;73.504;2023-02-11T02:16:29;101539.47;;;-25.92;71.22
59487;BME280;45298;54.918;73.504;2023-02-11T02:27:45;101684.41;;;-25.38;71.66
59487;BME280;45298;54.918;73.504;2023-02-11T02:30:33;101687.19;;;-25.44;71.71
59487;BME280;45298;54.918;73.504;2023-02-11T02:33:34;101692.28;;;-25.51;71.65
59487;BME280;45298;54.918;73.504;2023-02-11T02:36:17;101685.03;;;-25.64;71.44
59487;BME280;45298;54.918;73.504;2023-02-11T02:38:56;101530.06;;;-26.57;71.66
59487;BME280;45298;54.918;73.504;2023-02-11T02:41:30;101663.03;;;-25.82;71.79
59487;BME280;45298;54.918;73.504;2023-02-11T02:44:00;101653.75;;;-25.83;72.00
59487;BME280;45298;54.918;73.504;2023-02-11T02:46:31;101664.81;;;-25.81;71.34
59487;BME280;45298;54.918;73.504;2023-02-11T02:49:01;101561.72;;;-26.41;71.48
59487;BME280;45298;54.918;73.504;2023-02-11T02:51:52;101707.19;;;-25.60;71.85
59487;BME280;45298;54.918;73.504;2023-02-11T03:06:49;101721.19;;;-25.69;70.83
59487;BME280;45298;54.918;73.504;2023-02-11T03:09:33;101718.81;;;-25.67;70.78
59487;BME280;45298;54.918;73.504;2023-02-11T03:12:06;101717.56;;;-25.64;70.68
59487;BME280;45298;54.918;73.504;2023-02-11T03:14:37;101714.50;;;-25.61;71.10
59487;BME280;45298;54.918;73.504;2023-02-11T03:17:07;101711.56;;;-25.50;71.00
59487;BME280;45298;54.918;73.504;2023-02-11T03:19:42;101672.69;;;-25.62;71.44
59487;BME280;45298;54.918;73.504;2023-02-11T03:22:34;101680.50;;;-25.52;70.99
59487;BME280;45298;54.918;73.504;2023-02-11T03:25:05;101706.22;;;-25.37;71.37
59487;BME280;45298;54.918;73.504;2023-02-11T03:27:46;101592.00;;;-25.92;71.12
59487;BME280;45298;54.918;73.504;2023-02-11T03:30:29;101709.09;;;-25.18;71.28
59487;BME280;45298;54.918;73.504;2023-02-11T03:35:46;101693.06;;;-25.04;71.01
59487;BME280;45298;54.918;73.504;2023-02-11T03:38:35;101706.16;;;-24.90;71.67
59487;BME280;45298;54.918;73.504;2023-02-11T03:41:07;101728.03;;;-24.65;71.42
59487;BME280;45298;54.918;73.504;2023-02-11T03:43:43;101666.00;;;-24.83;71.33
59487;BME280;45298;54.918;73.504;2023-02-11T03:46:18;101692.06;;;-24.49;71.62
59487;BME280;45298;54.918;73.504;2023-02-11T03:48:57;101671.59;;;-24.45;71.30
59487;BME280;45298;54.918;73.504;2023-02-11T03:51:33;101653.72;;;-24.48;71.17
59487;BME280;45298;54.918;73.504;2023-02-11T03:54:08;101685.19;;;-24.18;71.41
59487;BME280;45298;54.918;73.504;2023-02-11T03:56:47;101649.56;;;-24.31;71.01
59487;BME280;45298;54.918;73.504;2023-02-11T03:59:18;101665.34;;;-24.08;71.45
59487;BME280;45298;54.918;73.504;2023-02-11T04:01:47;101672.34;;;-23.96;71.42
59487;BME280;45298;54.918;73.504;2023-02-11T04:04:18;101684.13;;;-23.70;71.40
59487;BME280;45298;54.918;73.504;2023-02-11T04:06:47;101669.25;;;-23.60;71.35
59487;BME280;45298;54.918;73.504;2023-02-11T04:09:16;101660.88;;;-23.52;71.13
59487;BME280;45298;54.918;73.504;2023-02-11T04:11:45;101713.59;;;-23.09;71.21
59487;BME280;45298;54.918;73.504;2023-02-11T04:14:13;101632.41;;;-23.44;70.98
59487;BME280;45298;54.918;73.504;2023-02-11T04:16:42;101647.53;;;-23.26;71.34
59487;BME280;45298;54.918;73.504;2023-02-11T04:19:11;101689.34;;;-23.00;70.73
59487;BME280;45298;54.918;73.504;2023-02-11T04:21:40;101684.19;;;-23.02;71.01
59487;BME280;45298;54.918;73.504;2023-02-11T04:24:09;101586.59;;;-23.50;70.78
59487;BME280;45298;54.918;73.504;2023-02-11T04:26:38;101679.19;;;-22.84;71.28
59487;BME280;45298;54.918;73.504;2023-02-11T04:29:07;101583.50;;;-23.30;70.96
59487;BME280;45298;54.918;73.504;2023-02-11T04:31:36;101720.06;;;-22.52;71.24
59487;BME280;45298;54.918;73.504;2023-02-11T04:34:05;101704.38;;;-22.49;70.92
59487;BME280;45298;54.918;73.504;2023-02-11T04:36:34;101721.38;;;-22.29;71.05
59487;BME280;45298;54.918;73.504;2023-02-11T04:39:03;101669.84;;;-22.41;71.04
59487;BME280;45298;54.918;73.504;2023-02-11T04:41:32;101691.31;;;-22.18;70.94
59487;BME280;45298;54.918;73.504;2023-02-11T04:44:01;101685.38;;;-22.10;71.54
59487;BME280;45298;54.918;73.504;2023-02-11T04:46:30;101629.47;;;-22.34;71.73
59487;BME280;45298;54.918;73.504;2023-02-11T04:48:59;101522.31;;;-22.86;71.46
59487;BME280;45298;54.918;73.504;2023-02-11T04:51:28;101696.00;;;-21.86;71.36
59487;BME280;45298;54.918;73.504;2023-02-11T04:53:57;101719.19;;;-21.63;70.96
59487;BME280;45298;54.918;73.504;2023-02-11T04:56:26;101703.44;;;-21.51;71.82
59487;BME280;45298;54.918;73.504;2023-02-11T04:58:57;101691.41;;;-21.54;71.02
59487;BME280;45298;54.918;73.504;2023-02-11T05:01:26;101715.63;;;-21.28;71.19
59487;BME280;45298;54.918;73.504;2023-02-11T05:03:55;101690.41;;;-21.19;71.04
59487;BME280;45298;54.918;73.504;2023-02-11T05:06:24;101694.03;;;-21.07;71.66
59487;BME280;45298;54.918;73.504;2023-02-11T05:08:53;101697.06;;;-20.92;71.27
59487;BME280;45298;54.918;73.504;2023-02-11T05:11:23;101675.13;;;-20.93;70.93
59487;BME280;45298;54.918;73.504;2023-02-11T05:13:55;101692.44;;;-20.87;71.62
59487;BME280;45298;54.918;73.504;2023-02-11T05:16:24;101725.88;;;-20.52;71.63
59487;BME280;45298;54.918;73.504;2023-02-11T05:18:53;101669.22;;;-20.55;71.98
59487;BME280;45298;54.918;73.504;2023-02-11T05:21:23;101693.31;;;-20.29;71.40
59487;BME280;45298;54.918;73.504;2023-02-11T05:23:52;101671.13;;;-20.33;71.05
59487;BME280;45298;54.918;73.504;2023-02-11T05:26:21;101670.47;;;-20.12;72.06
59487;BME280;45298;54.918;73.504;2023-02-11T05:28:50;101700.41;;;-19.77;71.90
59487;BME280;45298;54.918;73.504;2023-02-11T05:31:18;101694.13;;;-19.61;71.53
59487;BME280;45298;54.918;73.504;2023-02-11T05:33:47;101697.47;;;-19.41;71.42
59487;BME280;45298;54.918;73.504;2023-02-11T05:36:16;101700.94;;;-19.20;71.78
59487;BME280;45298;54.918;73.504;2023-02-11T05:38:45;101701.56;;;-18.92;71.15
59487;BME280;45298;54.918;73.504;2023-02-11T05:41:16;101671.22;;;-18.92;71.22
59487;BME280;45298;54.918;73.504;2023-02-11T05:43:47;101702.63;;;-18.59;70.98
59487;BME280;45298;54.918;73.504;2023-02-11T05:46:18;101703.72;;;-18.34;70.93
59487;BME280;45298;54.918;73.504;2023-02-11T05:48:47;101683.50;;;-18.45;70.88
59487;BME280;45298;54.918;73.504;2023-02-11T05:51:16;101671.34;;;-18.49;70.77
59487;BME280;45298;54.918;73.504;2023-02-11T05:53:44;101677.91;;;-18.41;70.54
59487;BME280;45298;54.918;73.504;2023-02-11T05:56:13;101657.41;;;-18.54;70.53
59487;BME280;45298;54.918;73.504;2023-02-11T05:58:42;101664.47;;;-18.40;70.50
59487;BME280;45298;54.918;73.504;2023-02-11T06:01:11;101680.63;;;-18.17;70.50
59487;BME280;45298;54.918;73.504;2023-02-11T06:03:40;101670.41;;;-18.18;70.53
59487;BME280;45298;54.918;73.504;2023-02-11T06:06:10;101703.34;;;-17.96;70.42
59487;BME280;45298;54.918;73.504;2023-02-11T06:08:40;101670.66;;;-18.15;71.00
59487;BME280;45298;54.918;73.504;2023-02-11T06:11:13;101713.59;;;-17.84;70.92
59487;BME280;45298;54.918;73.504;2023-02-11T06:13:43;101707.16;;;-17.91;70.59
59487;BME280;45298;54.918;73.504;2023-02-11T06:16:11;101679.22;;;-18.13;70.30
59487;BME280;45298;54.918;73.504;2023-02-11T06:18:40;101658.78;;;-18.37;70.08
59487;BME280;45298;54.918;73.504;2023-02-11T06:21:10;101672.81;;;-18.30;70.31
59487;BME280;45298;54.918;73.504;2023-02-11T06:23:40;101692.19;;;-18.20;70.26
59487;BME280;45298;54.918;73.504;2023-02-11T06:26:19;101682.84;;;-18.52;70.51
59487;BME280;45298;54.918;73.504;2023-02-11T06:28:49;101692.00;;;-18.55;70.28
59487;BME280;45298;54.918;73.504;2023-02-11T06:31:18;101692.09;;;-18.53;70.33
59487;BME280;45298;54.918;73.504;2023-02-11T06:33:47;101712.97;;;-18.35;70.35
59487;BME280;45298;54.918;73.504;2023-02-11T06:36:18;101596.66;;;-18.97;69.97
59487;BME280;45298;54.918;73.504;2023-02-11T06:38:48;101729.41;;;-18.19;69.83
59487;BME280;45298;54.918;73.504;2023-02-11T06:41:18;101720.25;;;-18.07;69.77
59487;BME280;45298;54.918;73.504;2023-02-11T06:43:51;101694.44;;;-18.13;69.55
59487;BME280;45298;54.918;73.504;2023-02-11T06:46:21;101676.47;;;-18.27;69.49
59487;BME280;45298;54.918;73.504;2023-02-11T06:48:50;101708.41;;;-17.96;69.28
59487;BME280;45298;54.918;73.504;2023-02-11T06:51:18;101705.84;;;-18.18;69.14
59487;BME280;45298;54.918;73.504;2023-02-11T06:53:47;101666.16;;;-18.61;69.15
59487;BME280;45298;54.918;73.504;2023-02-11T06:56:19;101711.19;;;-18.15;69.84
59487;BME280;45298;54.918;73.504;2023-02-11T06:58:51;101706.13;;;-18.15;69.62
59487;BME280;45298;54.918;73.504;2023-02-11T07:01:21;101710.50;;;-18.02;69.94
59487;BME280;45298;54.918;73.504;2023-02-11T07:03:51;101729.44;;;-17.87;69.23
59487;BME280;45298;54.918;73.504;2023-02-11T07:06:23;101687.06;;;-18.00;68.90
59487;BME280;45298;54.918;73.504;2023-02-11T07:08:55;101708.19;;;-17.67;69.16
59487;BME280;45298;54.918;73.504;2023-02-11T07:11:27;101727.56;;;-17.35;69.70
59487;BME280;45298;54.918;73.504;2023-02-11T07:14:04;101744.75;;;-16.98;69.35
59487;BME280;45298;54.918;73.504;2023-02-11T07:16:36;101712.00;;;-16.95;68.54
59487;BME280;45298;54.918;73.504;2023-02-11T07:19:05;101730.94;;;-16.67;68.27
59487;BME280;45298;54.918;73.504;2023-02-11T07:21:34;101710.63;;;-16.67;68.21
59487;BME280;45298;54.918;73.504;2023-02-11T07:24:09;101706.25;;;-16.34;67.89
59487;BME280;45298;54.918;73.504;2023-02-11T07:26:38;101703.44;;;-16.03;67.74
59487;BME280;45298;54.918;73.504;2023-02-11T07:29:07;101715.22;;;-15.68;67.14
59487;BME280;45298;54.918;73.504;2023-02-11T07:31:36;101700.72;;;-15.69;67.18
59487;BME280;45298;54.918;73.504;2023-02-11T07:34:04;101696.16;;;-15.50;67.42
59487;BME280;45298;54.918;73.504;2023-02-11T07:36:33;101720.44;;;-15.29;67.28
59487;BME280;45298;54.918;73.504;2023-02-11T07:39:02;101715.78;;;-15.23;67.07
59487;BME280;45298;54.918;73.504;2023-02-11T07:41:31;101698.97;;;-15.21;67.21
59487;BME280;45298;54.918;73.504;2023-02-11T07:44:04;101708.13;;;-15.11;66.51
59487;BME280;45298;54.918;73.504;2023-02-11T07:46:33;101741.13;;;-14.87;66.42
59487;BME280;45298;54.918;73.504;2023-02-11T07:49:02;101734.63;;;-14.96;65.83
59487;BME280;45298;54.918;73.504;2023-02-11T07:51:31;101699.28;;;-15.77;65.50
59487;BME280;45298;54.918;73.504;2023-02-11T07:54:01;101771.41;;;-15.89;67.01
59487;BME280;45298;54.918;73.504;2023-02-11T07:56:30;101704.97;;;-16.05;66.89
59487;BME280;45298;54.918;73.504;2023-02-11T07:59:01;101723.09;;;-16.13;66.26
59487;BME280;45298;54.918;73.504;2023-02-11T08:01:30;101748.72;;;-16.09;66.09
59487;BME280;45298;54.918;73.504;2023-02-11T08:04:01;101732.25;;;-16.03;66.71
59487;BME280;45298;54.918;73.504;2023-02-11T08:06:32;101700.22;;;-16.13;66.23
59487;BME280;45298;54.918;73.504;2023-02-11T08:09:06;101699.22;;;-16.15;66.56
59487;BME280;45298;54.918;73.504;2023-02-11T08:11:36;101685.09;;;-16.11;66.29
59487;BME280;45298;54.918;73.504;2023-02-11T08:14:05;101696.03;;;-16.00;66.95
59487;BME280;45298;54.918;73.504;2023-02-11T08:16:35;101720.53;;;-16.24;66.74
59487;BME280;45298;54.918;73.504;2023-02-11T08:19:11;101703.31;;;-16.75;67.26
59487;BME280;45298;54.918;73.504;2023-02-11T08:21:41;101728.25;;;-16.81;66.25
59487;BME280;45298;54.918;73.504;2023-02-11T08:24:10;101735.78;;;-16.71;66.83
59487;BME280;45298;54.918;73.504;2023-02-11T08:26:39;101712.06;;;-16.71;66.88
59487;BME280;45298;54.918;73.504;2023-02-11T08:29:12;101700.59;;;-16.54;67.69
59487;BME280;45298;54.918;73.504;2023-02-11T08:31:44;101739.75;;;-16.28;67.23
59487;BME280;45298;54.918;73.504;2023-02-11T08:34:14;101710.00;;;-16.53;67.16
59487;BME280;45298;54.918;73.504;2023-02-11T08:36:47;101726.75;;;-16.55;67.26
59487;BME280;45298;54.918;73.504;2023-02-11T08:39:19;101688.53;;;-16.68;67.20
59487;BME280;45298;54.918;73.504;2023-02-11T08:41:50;101702.56;;;-16.62;67.00
59487;BME280;45298;54.918;73.504;2023-02-11T08:44:20;101732.41;;;-16.59;67.16
59487;BME280;45298;54.918;73.504;2023-02-11T08:46:50;101630.84;;;-17.17;67.34
59487;BME280;45298;54.918;73.504;2023-02-11T08:49:19;101707.16;;;-16.80;67.57
59487;BME280;45298;54.918;73.504;2023-02-11T08:51:48;101743.09;;;-16.63;67.89
59487;BME280;45298;54.918;73.504;2023-02-11T08:54:17;101706.16;;;-16.82;67.35
59487;BME280;45298;54.918;73.504;2023-02-11T08:56:50;101629.03;;;-17.30;66.73
59487;BME280;45298;54.918;73.504;2023-02-11T08:59:19;101693.00;;;-16.88;67.72
59487;BME280;45298;54.918;73.504;2023-02-11T09:01:48;101732.47;;;-16.69;66.79
59487;BME280;45298;54.918;73.504;2023-02-11T09:04:17;101699.22;;;-16.96;67.66
59487;BME280;45298;54.918;73.504;2023-02-11T09:06:46;101736.38;;;-16.97;67.06
59487;BME280;45298;54.918;73.504;2023-02-11T09:09:15;101687.59;;;-17.27;67.79
59487;BME280;45298;54.918;73.504;2023-02-11T09:11:45;101709.59;;;-17.15;67.53
59487;BME280;45298;54.918;73.504;2023-02-11T09:14:18;101687.47;;;-17.28;67.59
59487;BME280;45298;54.918;73.504;2023-02-11T09:16:47;101705.38;;;-17.15;68.10
59487;BME280;45298;54.918;73.504;2023-02-11T09:19:18;101702.91;;;-16.91;67.87
59487;BME280;45298;54.918;73.504;2023-02-11T09:21:47;101713.97;;;-16.91;67.50
59487;BME280;45298;54.918;73.504;2023-02-11T09:24:16;101708.34;;;-16.98;67.72
59487;BME280;45298;54.918;73.504;2023-02-11T09:26:45;101696.72;;;-17.07;67.43
59487;BME280;45298;54.918;73.504;2023-02-11T09:29:14;101702.03;;;-17.04;67.47
59487;BME280;45298;54.918;73.504;2023-02-11T09:31:43;101708.34;;;-17.21;67.34
59487;BME280;45298;54.918;73.504;2023-02-11T09:34:12;101697.59;;;-17.28;67.71
59487;BME280;45298;54.918;73.504;2023-02-11T09:36:43;101698.69;;;-17.37;67.59
59487;BME280;45298;54.918;73.504;2023-02-11T09:39:15;101689.00;;;-17.30;67.23
59487;BME280;45298;54.918;73.504;2023-02-11T09:42:17;101738.31;;;-17.05;67.28
59487;BME280;45298;54.918;73.504;2023-02-11T09:44:52;101706.28;;;-17.14;67.54
59487;BME280;45298;54.918;73.504;2023-02-11T09:50:04;101697.50;;;-17.30;68.08
59487;BME280;45298;54.918;73.504;2023-02-11T09:52:46;101715.84;;;-17.22;67.57
59487;BME280;45298;54.918;73.504;2023-02-11T09:57:57;101693.53;;;-17.26;68.42
59487;BME280;45298;54.918;73.504;2023-02-11T10:00:43;101707.72;;;-17.18;67.37
59487;BME280;45298;54.918;73.504;2023-02-11T10:06:35;101715.06;;;-16.99;67.40
59487;BME280;45298;54.918;73.504;2023-02-11T10:12:24;101725.34;;;-16.86;68.04
59487;BME280;45298;54.918;73.504;2023-02-11T10:15:15;101685.22;;;-17.13;67.62
59487;BME280;45298;54.918;73.504;2023-02-11T10:21:02;101704.03;;;-16.99;68.67
59487;BME280;45298;54.918;73.504;2023-02-11T10:23:30;101675.19;;;-17.12;68.72
59487;BME280;45298;54.918;73.504;2023-02-11T10:26:11;101692.66;;;-17.05;67.57
59487;BME280;45298;54.918;73.504;2023-02-11T10:28:43;101708.13;;;-16.90;67.54
59487;BME280;45298;54.918;73.504;2023-02-11T10:31:32;101701.91;;;-16.93;67.88
59487;BME280;45298;54.918;73.504;2023-02-11T10:34:10;101673.06;;;-17.18;67.76
59487;BME280;45298;54.918;73.504;2023-02-11T10:36:42;101681.03;;;-17.13;67.67
59487;BME280;45298;54.918;73.504;2023-02-11T10:39:14;101592.50;;;-17.66;67.87
59487;BME280;45298;54.918;73.504;2023-02-11T10:41:47;101717.25;;;-17.04;67.99
59487;BME280;45298;54.918;73.504;2023-02-11T10:44:28;101696.13;;;-17.14;68.27
59487;BME280;45298;54.918;73.504;2023-02-11T10:47:02;101665.97;;;-17.22;68.13
59487;BME280;45298;54.918;73.504;2023-02-11T10:49:38;101667.06;;;-17.30;68.48
59487;BME280;45298;54.918;73.504;2023-02-11T10:52:33;101699.63;;;-17.24;68.11
59487;BME280;45298;54.918;73.504;2023-02-11T10:55:09;101700.91;;;-17.29;67.96
59487;BME280;45298;54.918;73.504;2023-02-11T10:58:02;101690.31;;;-17.36;68.57
59487;BME280;45298;54.918;73.504;2023-02-11T11:03:18;101672.94;;;-17.64;67.98
59487;BME280;45298;54.918;73.504;2023-02-11T11:06:08;101682.19;;;-17.64;68.75
59487;BME280;45298;54.918;73.504;2023-02-11T11:08:38;101700.56;;;-17.56;67.63
59487;BME280;45298;54.918;73.504;2023-02-11T11:11:19;101705.63;;;-17.56;68.01
59487;BME280;45298;54.918;73.504;2023-02-11T11:16:29;101705.00;;;-17.64;68.29
59487;BME280;45298;54.918;73.504;2023-02-11T11:21:53;101719.00;;;-17.80;68.55
59487;BME280;45298;54.918;73.504;2023-02-11T11:24:39;101697.72;;;-18.04;68.57
59487;BME280;45298;54.918;73.504;2023-02-11T11:27:22;101706.31;;;-18.02;68.75
59487;BME280;45298;54.918;73.504;2023-02-11T11:29:54;101680.44;;;-18.30;68.64
59487;BME280;45298;54.918;73.504;2023-02-11T11:32:30;101707.88;;;-18.25;68.86
59487;BME280;45298;54.918;73.504;2023-02-11T11:35:19;101714.09;;;-18.31;68.77
59487;BME280;45298;54.918;73.504;2023-02-11T11:37:51;101728.94;;;-18.36;69.11
59487;BME280;45298;54.918;73.504;2023-02-11T11:45:58;101725.53;;;-18.67;68.82
59487;BME280;45298;54.918;73.504;2023-02-11T11:48:39;101723.38;;;-18.73;69.01
59487;BME280;45298;54.918;73.504;2023-02-11T11:51:11;101710.19;;;-18.90;69.00
59487;BME280;45298;54.918;73.504;2023-02-11T11:54:10;101741.56;;;-18.88;68.44
59487;BME280;45298;54.918;73.504;2023-02-11T11:56:55;101690.97;;;-19.19;69.45
59487;BME280;45298;54.918;73.504;2023-02-11T11:59:26;101710.56;;;-19.16;69.21
59487;BME280;45298;54.918;73.504;2023-02-11T12:04:54;101701.81;;;-19.30;69.59
59487;BME280;45298;54.918;73.504;2023-02-11T12:10:56;101686.94;;;-19.56;69.47
59487;BME280;45298;54.918;73.504;2023-02-11T12:16:26;101726.13;;;-19.51;69.94
59487;BME280;45298;54.918;73.504;2023-02-11T12:22:18;101678.78;;;-19.83;69.99
59487;BME280;45298;54.918;73.504;2023-02-11T12:27:42;101721.63;;;-19.74;70.36
59487;BME280;45298;54.918;73.504;2023-02-11T12:35:30;101718.63;;;-20.00;70.09
59487;BME280;45298;54.918;73.504;2023-02-11T12:38:17;101729.91;;;-19.96;70.27
59487;BME280;45298;54.918;73.504;2023-02-11T12:47:50;101704.22;;;-20.30;70.25
59487;BME280;45298;54.918;73.504;2023-02-11T12:53:14;101749.75;;;-20.29;71.17
59487;BME280;45298;54.918;73.504;2023-02-11T12:55:48;101674.78;;;-20.87;70.59
59487;BME280;45298;54.918;73.504;2023-02-11T12:58:21;101723.00;;;-20.65;70.44
59487;BME280;45298;54.918;73.504;2023-02-11T13:03:51;101731.25;;;-20.76;70.95
59487;BME280;45298;54.918;73.504;2023-02-11T13:06:32;101720.75;;;-20.81;70.66
59487;BME280;45298;54.918;73.504;2023-02-11T13:09:04;101704.22;;;-20.96;70.52
59487;BME280;45298;54.918;73.504;2023-02-11T13:11:46;101712.38;;;-20.90;70.56
59487;BME280;45298;54.918;73.504;2023-02-11T13:14:32;101721.94;;;-20.86;71.37
59487;BME280;45298;54.918;73.504;2023-02-11T13:17:18;101666.34;;;-21.16;71.57
59487;BME280;45298;54.918;73.504;2023-02-11T13:19:53;101729.06;;;-20.82;71.22
59487;BME280;45298;54.918;73.504;2023-02-11T13:22:58;101765.47;;;-20.70;71.81
59487;BME280;45298;54.918;73.504;2023-02-11T13:25:46;101737.94;;;-20.77;71.42
59487;BME280;45298;54.918;73.504;2023-02-11T13:30:59;101760.28;;;-20.71;71.55
59487;BME280;45298;54.918;73.504;2023-02-11T13:33:38;101748.66;;;-20.79;71.58
59487;BME280;45298;54.918;73.504;2023-02-11T13:36:19;101720.84;;;-20.99;71.25
59487;BME280;45298;54.918;73.504;2023-02-11T13:38:55;101700.44;;;-21.10;71.75
59487;BME280;45298;54.918;73.504;2023-02-11T13:41:50;101752.66;;;-20.81;71.43
59487;BME280;45298;54.918;73.504;2023-02-11T13:44:32;101717.00;;;-21.04;72.28
59487;BME280;45298;54.918;73.504;2023-02-11T13:47:04;101740.91;;;-20.81;72.11
59487;BME280;45298;54.918;73.504;2023-02-11T13:49:41;101717.13;;;-20.93;71.92
59487;BME280;45298;54.918;73.504;2023-02-11T13:52:30;101752.41;;;-20.74;71.51
59487;BME280;45298;54.918;73.504;2023-02-11T13:55:14;101707.22;;;-21.01;72.32
59487;BME280;45298;54.918;73.504;2023-02-11T14:03:26;101754.28;;;-20.82;71.56
59487;BME280;45298;54.918;73.504;2023-02-11T14:06:17;101744.19;;;-20.82;72.69
59487;BME280;45298;54.918;73.504;2023-02-11T14:11:41;101738.84;;;-20.85;71.99
59487;BME280;45298;54.918;73.504;2023-02-11T14:14:19;101743.31;;;-20.83;72.10
59487;BME280;45298;54.918;73.504;2023-02-11T14:19:41;101709.66;;;-21.11;72.47
59487;BME280;45298;54.918;73.504;2023-02-11T14:22:21;101630.19;;;-21.72;71.61
59487;BME280;45298;54.918;73.504;2023-02-11T14:25:01;101702.03;;;-21.39;71.78
59487;BME280;45298;54.918;73.504;2023-02-11T14:27:40;101723.56;;;-21.42;72.33
59487;BME280;45298;54.918;73.504;2023-02-11T14:30:23;101735.16;;;-21.53;72.38
59487;BME280;45298;54.918;73.504;2023-02-11T14:36:01;101722.75;;;-21.69;72.38
59487;BME280;45298;54.918;73.504;2023-02-11T14:39:04;101769.97;;;-21.49;72.59
59487;BME280;45298;54.918;73.504;2023-02-11T14:41:42;101736.34;;;-21.59;73.47
59487;BME280;45298;54.918;73.504;2023-02-11T14:44:18;101730.41;;;-21.50;72.95
59487;BME280;45298;54.918;73.504;2023-02-11T14:46:50;101729.19;;;-21.45;73.15
59487;BME280;45298;54.918;73.504;2023-02-11T14:49:32;101751.25;;;-21.34;73.34
59487;BME280;45298;54.918;73.504;2023-02-11T14:52:17;101789.72;;;-21.17;72.71